createdAt,value
2023-02-14T00:01:54.004Z,16.0
2023-02-14T00:07:00.093Z,14.5
2023-02-14T00:12:06.289Z,15.0
2023-02-14T00:17:12.498Z,14.0
2023-02-14T00:22:18.706Z,15.0
2023-02-14T00:27:24.909Z,16.0
2023-02-14T00:32:31.120Z,16.0
2023-02-14T00:37:37.323Z,15.0
2023-02-14T00:42:43.529Z,15.0
2023-02-14T00:47:49.739Z,15.0
2023-02-14T00:52:55.946Z,15.0
2023-02-14T00:58:02.152Z,17.0
2023-02-14T01:03:08.370Z,15.0
2023-02-14T01:08:14.572Z,13.0
2023-02-14T01:13:20.779Z,13.0
2023-02-14T01:18:26.984Z,13.0
2023-02-14T01:23:33.192Z,13.0
2023-02-14T01:28:39.407Z,13.0
2023-02-14T01:33:45.606Z,13.0
2023-02-14T01:38:51.825Z,14.0
2023-02-14T01:43:58.026Z,14.0
2023-02-14T01:49:04.238Z,12.0
2023-02-14T01:54:10.445Z,13.0
2023-02-14T01:59:16.644Z,13.0
2023-02-14T02:04:22.861Z,12.0
2023-02-14T02:09:29.078Z,12.0
2023-02-14T02:14:35.270Z,14.0
2023-02-14T02:19:41.472Z,15.0
2023-02-14T02:24:47.686Z,13.0
2023-02-14T02:29:53.955Z,14.0
2023-02-14T02:35:00.146Z,14.0
2023-02-14T02:40:06.316Z,14.0
2023-02-14T02:45:12.510Z,16.0
2023-02-14T02:50:18.718Z,16.0
2023-02-14T02:55:24.930Z,16.0
2023-02-14T03:00:31.143Z,15.0
2023-02-14T03:05:37.343Z,16.0
2023-02-14T03:10:43.555Z,16.0
2023-02-14T03:15:49.891Z,17.0
2023-02-14T03:20:55.977Z,15.0
2023-02-14T03:26:02.177Z,17.0
2023-02-14T03:31:08.472Z,18.0
2023-02-14T03:36:14.583Z,16.0
2023-02-14T03:41:20.798Z,15.0
2023-02-14T03:46:27.054Z,16.0
2023-02-14T03:51:33.210Z,16.0
2023-02-14T03:56:39.409Z,19.0
2023-02-14T04:01:45.671Z,18.5
2023-02-14T04:06:51.845Z,18.0
2023-02-14T04:11:58.037Z,17.0
2023-02-14T04:17:04.251Z,17.0
2023-02-14T04:22:10.451Z,16.0
2023-02-14T04:27:16.670Z,17.0
2023-02-14T04:32:22.955Z,16.0
2023-02-14T04:37:29.072Z,15.0
2023-02-14T04:42:35.278Z,14.0
2023-02-14T04:47:41.483Z,14.0
2023-02-14T04:52:47.686Z,14.0
2023-02-14T04:57:53.918Z,14.0
2023-02-14T05:03:00.119Z,14.0
2023-02-14T05:08:05.335Z,14.0
2023-02-14T05:13:11.533Z,13.0
2023-02-14T05:18:17.737Z,12.5
2023-02-14T05:23:23.955Z,13.0
2023-02-14T05:28:30.171Z,14.0
2023-02-14T05:33:36.360Z,14.0
2023-02-14T05:38:42.570Z,15.5
2023-02-14T05:43:48.797Z,14.0
2023-02-14T05:48:54.980Z,15.0
2023-02-14T05:54:01.221Z,17.0
2023-02-14T05:59:07.407Z,13.0
2023-02-14T06:04:13.628Z,14.0
2023-02-14T06:09:19.887Z,13.0
2023-02-14T06:14:26.023Z,13.0
2023-02-14T06:19:32.227Z,14.0
2023-02-14T06:24:38.436Z,15.0
2023-02-14T06:29:44.642Z,14.0
2023-02-14T06:34:50.856Z,15.0
2023-02-14T06:39:57.064Z,15.0
2023-02-14T06:45:03.295Z,14.0
2023-02-14T06:50:09.470Z,14.0
2023-02-14T06:55:15.684Z,14.0
2023-02-14T07:00:21.894Z,14.0
2023-02-14T07:05:28.100Z,14.0
2023-02-14T07:10:34.341Z,16.0
2023-02-14T07:15:40.765Z,13.0
2023-02-14T07:20:46.719Z,13.0
2023-02-14T07:25:52.924Z,15.0
2023-02-14T07:30:59.545Z,15.0
2023-02-14T07:36:05.339Z,15.0
2023-02-14T07:41:11.560Z,15.0
2023-02-14T07:46:17.862Z,17.0
2023-02-14T07:51:23.968Z,17.0
2023-02-14T07:56:30.163Z,23.0
2023-02-14T08:01:36.446Z,23.0
2023-02-14T08:06:42.590Z,20.0
2023-02-14T08:11:48.792Z,20.0
2023-02-14T08:16:55.263Z,19.5
2023-02-14T08:22:01.205Z,21.0
2023-02-14T08:27:07.401Z,24.0
2023-02-14T08:32:13.699Z,25.0
2023-02-14T08:37:19.822Z,24.0
2023-02-14T08:42:26.043Z,27.0
2023-02-14T08:47:32.266Z,31.5
2023-02-14T08:52:38.445Z,33.5
2023-02-14T08:57:44.654Z,32.5
2023-02-14T09:02:50.876Z,35.5
2023-02-14T09:07:57.137Z,35.0
2023-02-14T09:13:03.272Z,37.0
2023-02-14T09:18:09.524Z,39.0
2023-02-14T09:23:15.680Z,35.5
2023-02-14T09:28:21.886Z,40.5
2023-02-14T09:33:28.104Z,38.5
2023-02-14T09:38:34.314Z,41.0
2023-02-14T09:43:40.511Z,37.5
2023-02-14T09:48:46.793Z,36.0
2023-02-14T09:53:52.973Z,33.0
2023-02-14T09:58:59.152Z,33.0
2023-02-14T10:04:05.342Z,30.0
2023-02-14T10:09:11.559Z,28.0
2023-02-14T10:14:17.773Z,29.0
2023-02-14T10:19:23.963Z,29.5
2023-02-14T10:24:30.176Z,27.0
2023-02-14T10:29:36.736Z,29.0
2023-02-14T10:34:42.618Z,26.0
2023-02-14T10:39:47.845Z,25.0
2023-02-14T10:44:54.018Z,24.0
2023-02-14T10:50:00.241Z,23.0
2023-02-14T10:55:06.433Z,23.0
2023-02-14T11:00:12.635Z,21.5
2023-02-14T11:05:18.855Z,22.0
2023-02-14T11:10:24.091Z,22.0
2023-02-14T11:15:30.302Z,20.0
2023-02-14T11:20:36.491Z,20.0
2023-02-14T11:25:42.704Z,20.0
2023-02-14T11:30:49.064Z,21.0
2023-02-14T11:35:55.124Z,20.0
2023-02-14T11:41:01.561Z,20.0
2023-02-14T11:46:07.618Z,19.0
2023-02-14T11:51:13.815Z,19.0
2023-02-14T11:56:19.949Z,19.0
2023-02-14T12:01:26.165Z,18.0
2023-02-14T12:06:32.403Z,18.0
2023-02-14T12:11:38.579Z,18.0
2023-02-14T12:16:44.791Z,18.0
2023-02-14T12:21:50.998Z,18.0
2023-02-14T12:26:57.207Z,18.0
2023-02-14T12:32:03.505Z,17.5
2023-02-14T12:37:09.830Z,17.0
2023-02-14T12:42:15.837Z,16.0
2023-02-14T12:47:22.066Z,16.0
2023-02-14T12:52:28.245Z,17.0
2023-02-14T12:57:34.462Z,16.0
2023-02-14T13:02:40.716Z,16.0
2023-02-14T13:07:46.896Z,15.0
2023-02-14T13:12:53.113Z,15.0
2023-02-14T13:17:59.335Z,16.0
2023-02-14T13:33:17.976Z,16.0
2023-02-14T13:38:24.177Z,17.0
2023-02-14T13:43:30.370Z,16.0
2023-02-14T13:48:38.951Z,16.0
2023-02-14T13:53:42.849Z,17.0
2023-02-14T13:58:49.028Z,17.0
2023-02-14T14:03:55.268Z,16.0
2023-02-14T14:09:01.428Z,17.0
2023-02-14T14:14:07.670Z,16.0
2023-02-14T14:19:13.874Z,17.5
2023-02-14T14:24:20.069Z,16.0
2023-02-14T14:29:26.263Z,16.0
2023-02-14T14:34:32.467Z,16.0
2023-02-14T14:39:38.678Z,17.0
2023-02-14T14:44:44.888Z,19.0
2023-02-14T14:49:51.095Z,20.0
2023-02-14T14:54:57.312Z,19.0
2023-02-14T15:00:03.549Z,19.0
2023-02-14T15:05:09.798Z,20.0
2023-02-14T15:10:15.934Z,19.0
2023-02-14T15:15:22.144Z,19.0
2023-02-14T15:20:28.359Z,19.0
2023-02-14T15:25:34.582Z,19.0
2023-02-14T15:30:40.890Z,19.0
2023-02-14T15:35:46.994Z,19.0
2023-02-14T15:40:53.213Z,19.0
2023-02-14T15:45:59.431Z,19.0
2023-02-14T15:51:05.631Z,19.0
2023-02-14T15:56:11.835Z,20.0
2023-02-14T16:01:18.087Z,20.0
2023-02-14T16:06:24.268Z,21.0
2023-02-14T16:11:30.469Z,20.0
2023-02-14T16:16:36.692Z,19.0
2023-02-14T16:21:42.886Z,19.0
2023-02-14T16:26:49.140Z,19.0
2023-02-14T16:32:16.014Z,19.5
2023-02-14T16:37:01.539Z,19.0
2023-02-14T16:42:07.745Z,19.0
2023-02-14T16:47:12.997Z,19.0
2023-02-14T16:52:19.188Z,19.0
2023-02-14T16:57:27.647Z,20.0
2023-02-14T17:02:31.759Z,20.0
2023-02-14T17:07:37.815Z,19.0
2023-02-14T17:12:44.010Z,20.0
2023-02-14T17:17:50.255Z,19.0
2023-02-14T17:22:56.442Z,20.0
2023-02-14T17:28:02.646Z,20.0
2023-02-14T17:33:08.852Z,20.0
2023-02-14T17:38:15.064Z,20.0
2023-02-14T17:43:21.275Z,20.0
2023-02-14T17:48:27.480Z,20.0
2023-02-14T17:53:33.675Z,20.5
2023-02-14T17:58:39.887Z,20.0
2023-02-14T18:03:46.108Z,21.0
2023-02-14T18:08:52.321Z,20.0
2023-02-14T18:13:58.523Z,21.0
2023-02-14T18:19:04.727Z,23.0
2023-02-14T18:24:10.955Z,21.0
2023-02-14T18:29:17.135Z,22.0
2023-02-14T18:34:23.361Z,20.0
2023-02-14T18:39:29.552Z,22.0
2023-02-14T18:44:35.977Z,22.0
2023-02-14T18:49:41.964Z,23.0
2023-02-14T18:54:48.185Z,22.0
2023-02-14T18:59:54.378Z,22.0
2023-02-14T19:05:00.600Z,20.0
2023-02-14T19:10:06.822Z,20.0
2023-02-14T19:15:13.010Z,22.0
2023-02-14T19:20:19.217Z,24.0
2023-02-14T19:25:25.424Z,22.0
2023-02-14T19:30:31.737Z,22.0
2023-02-14T19:35:37.853Z,20.0
2023-02-14T19:40:44.056Z,23.0
2023-02-14T19:45:50.903Z,22.0
2023-02-14T19:50:56.475Z,24.0
2023-02-14T19:56:02.678Z,23.0
2023-02-14T20:01:08.898Z,22.0
2023-02-14T20:06:15.088Z,23.0
2023-02-14T20:11:21.289Z,22.0
2023-02-14T20:16:27.509Z,23.0
2023-02-14T20:21:33.704Z,24.0
2023-02-14T20:26:39.932Z,26.0
2023-02-14T20:31:46.204Z,26.0
2023-02-14T20:36:52.326Z,27.0
2023-02-14T20:41:58.550Z,28.0
2023-02-14T20:47:04.738Z,26.0
2023-02-14T20:52:10.955Z,27.0
2023-02-14T20:57:17.161Z,25.0
2023-02-14T21:02:23.371Z,26.0
2023-02-14T21:07:29.572Z,26.0
2023-02-14T21:12:35.779Z,26.0
2023-02-14T21:17:41.991Z,29.0
2023-02-14T21:22:48.206Z,26.0
2023-02-14T21:27:54.402Z,26.0
2023-02-14T21:33:00.627Z,24.0
2023-02-14T21:38:06.825Z,25.0
2023-02-14T21:43:13.038Z,25.0
2023-02-14T21:48:19.235Z,25.0
2023-02-14T21:53:25.447Z,25.0
2023-02-14T21:58:31.667Z,25.0
2023-02-14T22:03:37.858Z,24.0
2023-02-14T22:08:44.071Z,23.0
2023-02-14T22:13:50.275Z,25.0
2023-02-14T22:18:55.505Z,25.0
2023-02-14T22:24:01.713Z,24.0
2023-02-14T22:29:07.955Z,24.0
2023-02-14T22:34:14.122Z,25.5
2023-02-14T22:39:20.322Z,25.0
2023-02-14T22:44:26.541Z,24.0
2023-02-14T22:49:32.760Z,25.0
2023-02-14T22:54:38.962Z,25.5
2023-02-14T22:59:45.154Z,25.5
2023-02-14T23:04:51.387Z,23.0
2023-02-14T23:09:57.565Z,26.0
2023-02-14T23:15:03.778Z,27.0
2023-02-14T23:20:09.994Z,27.0
2023-02-14T23:25:16.193Z,27.0
2023-02-14T23:30:22.413Z,28.0
2023-02-14T23:35:28.606Z,25.0
2023-02-14T23:40:34.812Z,28.0
2023-02-14T23:45:41.064Z,27.5
2023-02-14T23:50:47.234Z,28.0
2023-02-14T23:55:53.437Z,26.0
